sensor_id;sensor_type;location;lat;lon;timestamp;P1;durP1;ratioP1;P2;durP2;ratioP2
727;SDS011;347;48.780;9.158;2022-12-29T00:01:16;7.27;;;6.93;;
727;SDS011;347;48.780;9.158;2022-12-29T00:03:45;8.20;;;7.80;;
727;SDS011;347;48.780;9.158;2022-12-29T00:06:11;8.07;;;7.60;;
727;SDS011;347;48.780;9.158;2022-12-29T00:08:36;7.23;;;6.93;;
727;SDS011;347;48.780;9.158;2022-12-29T00:11:12;7.03;;;6.70;;
727;SDS011;347;48.780;9.158;2022-12-29T00:13:42;7.60;;;7.30;;
727;SDS011;347;48.780;9.158;2022-12-29T00:16:27;7.30;;;7.10;;
727;SDS011;347;48.780;9.158;2022-12-29T00:18:53;7.53;;;7.17;;
727;SDS011;347;48.780;9.158;2022-12-29T00:21:20;8.00;;;7.60;;
727;SDS011;347;48.780;9.158;2022-12-29T00:24:05;7.10;;;6.90;;
727;SDS011;347;48.780;9.158;2022-12-29T00:26:53;7.60;;;7.20;;
727;SDS011;347;48.780;9.158;2022-12-29T00:29:48;7.20;;;7.00;;
727;SDS011;347;48.780;9.158;2022-12-29T00:32:33;7.50;;;7.20;;
727;SDS011;347;48.780;9.158;2022-12-29T00:35:28;7.47;;;7.13;;
727;SDS011;347;48.780;9.158;2022-12-29T00:38:01;7.13;;;6.90;;
727;SDS011;347;48.780;9.158;2022-12-29T00:40:48;7.57;;;7.27;;
727;SDS011;347;48.780;9.158;2022-12-29T00:43:33;7.20;;;7.00;;
727;SDS011;347;48.780;9.158;2022-12-29T00:46:17;7.90;;;7.57;;
727;SDS011;347;48.780;9.158;2022-12-29T00:48:43;7.23;;;7.03;;
727;SDS011;347;48.780;9.158;2022-12-29T00:51:27;7.50;;;7.20;;
727;SDS011;347;48.780;9.158;2022-12-29T00:53:52;7.40;;;7.03;;
727;SDS011;347;48.780;9.158;2022-12-29T00:56:18;7.77;;;7.40;;
727;SDS011;347;48.780;9.158;2022-12-29T00:58:44;7.20;;;6.80;;
727;SDS011;347;48.780;9.158;2022-12-29T01:01:09;7.70;;;7.30;;
727;SDS011;347;48.780;9.158;2022-12-29T01:03:35;7.90;;;7.50;;
727;SDS011;347;48.780;9.158;2022-12-29T01:06:07;6.77;;;6.57;;
727;SDS011;347;48.780;9.158;2022-12-29T01:08:34;7.00;;;6.70;;
727;SDS011;347;48.780;9.158;2022-12-29T01:11:01;7.17;;;6.87;;
727;SDS011;347;48.780;9.158;2022-12-29T01:13:27;7.87;;;7.57;;
727;SDS011;347;48.780;9.158;2022-12-29T01:15:53;7.00;;;6.77;;
727;SDS011;347;48.780;9.158;2022-12-29T01:18:20;6.70;;;6.50;;
727;SDS011;347;48.780;9.158;2022-12-29T01:20:46;7.93;;;7.53;;
727;SDS011;347;48.780;9.158;2022-12-29T01:23:12;7.40;;;7.00;;
727;SDS011;347;48.780;9.158;2022-12-29T01:25:37;7.00;;;6.80;;
727;SDS011;347;48.780;9.158;2022-12-29T01:28:03;7.00;;;6.80;;
727;SDS011;347;48.780;9.158;2022-12-29T01:30:29;7.80;;;7.50;;
727;SDS011;347;48.780;9.158;2022-12-29T01:32:55;6.63;;;6.43;;
727;SDS011;347;48.780;9.158;2022-12-29T01:35:20;7.43;;;7.13;;
727;SDS011;347;48.780;9.158;2022-12-29T01:37:46;7.40;;;7.20;;
727;SDS011;347;48.780;9.158;2022-12-29T01:40:11;7.30;;;6.30;;
727;SDS011;347;48.780;9.158;2022-12-29T01:42:37;6.73;;;6.53;;
727;SDS011;347;48.780;9.158;2022-12-29T01:45:07;7.33;;;7.03;;
727;SDS011;347;48.780;9.158;2022-12-29T01:47:38;6.63;;;6.43;;
727;SDS011;347;48.780;9.158;2022-12-29T01:50:28;7.27;;;6.90;;
727;SDS011;347;48.780;9.158;2022-12-29T01:52:59;6.83;;;6.53;;
727;SDS011;347;48.780;9.158;2022-12-29T01:55:40;6.80;;;6.60;;
727;SDS011;347;48.780;9.158;2022-12-29T01:58:11;7.17;;;6.97;;
727;SDS011;347;48.780;9.158;2022-12-29T02:00:39;7.30;;;6.90;;
727;SDS011;347;48.780;9.158;2022-12-29T02:03:05;7.50;;;7.10;;
727;SDS011;347;48.780;9.158;2022-12-29T02:08:10;6.67;;;6.47;;
727;SDS011;347;48.780;9.158;2022-12-29T02:10:37;7.03;;;6.83;;
727;SDS011;347;48.780;9.158;2022-12-29T02:13:04;7.00;;;6.70;;
727;SDS011;347;48.780;9.158;2022-12-29T02:15:46;10.43;;;7.20;;
727;SDS011;347;48.780;9.158;2022-12-29T02:35:14;7.57;;;7.10;;
727;SDS011;347;48.780;9.158;2022-12-29T02:40:24;9.27;;;8.70;;
727;SDS011;347;48.780;9.158;2022-12-29T02:45:37;7.30;;;7.00;;
727;SDS011;347;48.780;9.158;2022-12-29T02:48:25;8.03;;;7.43;;
727;SDS011;347;48.780;9.158;2022-12-29T02:51:18;8.30;;;7.77;;
727;SDS011;347;48.780;9.158;2022-12-29T02:53:48;7.87;;;7.57;;
727;SDS011;347;48.780;9.158;2022-12-29T02:56:36;7.33;;;7.03;;
727;SDS011;347;48.780;9.158;2022-12-29T02:59:01;7.87;;;7.37;;
727;SDS011;347;48.780;9.158;2022-12-29T03:01:37;8.50;;;8.10;;
727;SDS011;347;48.780;9.158;2022-12-29T03:07:23;7.70;;;7.50;;
727;SDS011;347;48.780;9.158;2022-12-29T03:21:42;7.37;;;7.10;;
727;SDS011;347;48.780;9.158;2022-12-29T03:24:34;8.67;;;7.87;;
727;SDS011;347;48.780;9.158;2022-12-29T03:27:04;8.13;;;7.83;;
727;SDS011;347;48.780;9.158;2022-12-29T03:29:36;8.03;;;7.73;;
727;SDS011;347;48.780;9.158;2022-12-29T03:32:05;8.37;;;7.97;;
727;SDS011;347;48.780;9.158;2022-12-29T03:34:34;8.00;;;7.80;;
727;SDS011;347;48.780;9.158;2022-12-29T03:37:06;7.87;;;7.57;;
727;SDS011;347;48.780;9.158;2022-12-29T03:39:36;7.90;;;7.60;;
727;SDS011;347;48.780;9.158;2022-12-29T03:42:03;7.70;;;7.40;;
727;SDS011;347;48.780;9.158;2022-12-29T03:44:38;8.40;;;8.10;;
727;SDS011;347;48.780;9.158;2022-12-29T03:47:06;7.73;;;7.53;;
727;SDS011;347;48.780;9.158;2022-12-29T03:49:33;8.23;;;7.93;;
727;SDS011;347;48.780;9.158;2022-12-29T03:51:58;8.20;;;7.80;;
727;SDS011;347;48.780;9.158;2022-12-29T03:54:24;7.03;;;6.83;;
727;SDS011;347;48.780;9.158;2022-12-29T03:56:50;7.13;;;6.93;;
727;SDS011;347;48.780;9.158;2022-12-29T03:59:16;7.37;;;7.13;;
727;SDS011;347;48.780;9.158;2022-12-29T04:01:41;7.20;;;6.90;;
727;SDS011;347;48.780;9.158;2022-12-29T04:04:07;8.00;;;7.70;;
727;SDS011;347;48.780;9.158;2022-12-29T04:06:34;8.83;;;8.53;;
727;SDS011;347;48.780;9.158;2022-12-29T04:09:00;7.70;;;7.50;;
727;SDS011;347;48.780;9.158;2022-12-29T04:11:26;8.43;;;7.97;;
727;SDS011;347;48.780;9.158;2022-12-29T04:13:51;8.30;;;8.00;;
727;SDS011;347;48.780;9.158;2022-12-29T04:16:17;7.77;;;7.37;;
727;SDS011;347;48.780;9.158;2022-12-29T04:18:43;8.70;;;8.30;;
727;SDS011;347;48.780;9.158;2022-12-29T04:21:08;9.10;;;8.70;;
727;SDS011;347;48.780;9.158;2022-12-29T04:23:35;8.63;;;8.33;;
727;SDS011;347;48.780;9.158;2022-12-29T04:26:02;8.33;;;7.93;;
727;SDS011;347;48.780;9.158;2022-12-29T04:28:28;8.03;;;7.73;;
727;SDS011;347;48.780;9.158;2022-12-29T04:30:53;8.30;;;8.00;;
727;SDS011;347;48.780;9.158;2022-12-29T04:33:20;8.60;;;8.30;;
727;SDS011;347;48.780;9.158;2022-12-29T04:35:46;9.00;;;8.70;;
727;SDS011;347;48.780;9.158;2022-12-29T04:38:12;8.13;;;7.83;;
727;SDS011;347;48.780;9.158;2022-12-29T04:40:39;8.90;;;8.57;;
727;SDS011;347;48.780;9.158;2022-12-29T04:43:06;8.30;;;8.10;;
727;SDS011;347;48.780;9.158;2022-12-29T04:45:32;9.03;;;8.57;;
727;SDS011;347;48.780;9.158;2022-12-29T04:47:57;8.67;;;8.37;;
727;SDS011;347;48.780;9.158;2022-12-29T04:50:23;9.20;;;8.70;;
727;SDS011;347;48.780;9.158;2022-12-29T04:52:49;8.13;;;7.83;;
727;SDS011;347;48.780;9.158;2022-12-29T04:55:14;8.93;;;8.53;;
727;SDS011;347;48.780;9.158;2022-12-29T04:57:40;8.30;;;8.00;;
727;SDS011;347;48.780;9.158;2022-12-29T05:00:06;9.40;;;9.10;;
727;SDS011;347;48.780;9.158;2022-12-29T05:02:34;8.97;;;8.67;;
727;SDS011;347;48.780;9.158;2022-12-29T05:05:00;8.57;;;8.33;;
727;SDS011;347;48.780;9.158;2022-12-29T05:07:25;8.13;;;7.93;;
727;SDS011;347;48.780;9.158;2022-12-29T05:09:51;9.20;;;8.87;;
727;SDS011;347;48.780;9.158;2022-12-29T05:12:16;8.10;;;7.80;;
727;SDS011;347;48.780;9.158;2022-12-29T05:14:42;9.00;;;8.70;;
727;SDS011;347;48.780;9.158;2022-12-29T05:17:08;7.97;;;7.77;;
727;SDS011;347;48.780;9.158;2022-12-29T05:19:33;9.10;;;8.80;;
727;SDS011;347;48.780;9.158;2022-12-29T05:21:59;8.53;;;8.23;;
727;SDS011;347;48.780;9.158;2022-12-29T05:24:25;8.67;;;8.17;;
727;SDS011;347;48.780;9.158;2022-12-29T05:26:50;8.10;;;7.90;;
727;SDS011;347;48.780;9.158;2022-12-29T05:29:16;8.33;;;8.03;;
727;SDS011;347;48.780;9.158;2022-12-29T05:31:42;8.10;;;7.80;;
727;SDS011;347;48.780;9.158;2022-12-29T05:34:08;8.80;;;8.50;;
727;SDS011;347;48.780;9.158;2022-12-29T05:36:36;7.90;;;7.60;;
727;SDS011;347;48.780;9.158;2022-12-29T05:39:02;8.13;;;7.83;;
727;SDS011;347;48.780;9.158;2022-12-29T05:41:28;8.60;;;8.07;;
727;SDS011;347;48.780;9.158;2022-12-29T05:43:53;8.07;;;7.83;;
727;SDS011;347;48.780;9.158;2022-12-29T05:46:19;8.93;;;8.63;;
727;SDS011;347;48.780;9.158;2022-12-29T05:48:45;8.73;;;8.43;;
727;SDS011;347;48.780;9.158;2022-12-29T05:51:10;8.33;;;8.07;;
727;SDS011;347;48.780;9.158;2022-12-29T05:53:36;8.13;;;7.93;;
727;SDS011;347;48.780;9.158;2022-12-29T05:56:02;8.83;;;8.53;;
727;SDS011;347;48.780;9.158;2022-12-29T05:58:28;8.70;;;8.40;;
727;SDS011;347;48.780;9.158;2022-12-29T06:00:53;8.50;;;8.20;;
727;SDS011;347;48.780;9.158;2022-12-29T06:03:19;8.07;;;7.87;;
727;SDS011;347;48.780;9.158;2022-12-29T06:05:45;8.63;;;8.33;;
727;SDS011;347;48.780;9.158;2022-12-29T06:08:11;7.97;;;7.70;;
727;SDS011;347;48.780;9.158;2022-12-29T06:10:37;7.73;;;7.53;;
727;SDS011;347;48.780;9.158;2022-12-29T06:13:03;7.90;;;7.70;;
727;SDS011;347;48.780;9.158;2022-12-29T06:15:30;8.67;;;8.37;;
727;SDS011;347;48.780;9.158;2022-12-29T06:17:57;7.73;;;7.53;;
727;SDS011;347;48.780;9.158;2022-12-29T06:20:22;8.30;;;7.90;;
727;SDS011;347;48.780;9.158;2022-12-29T06:22:48;7.97;;;7.77;;
727;SDS011;347;48.780;9.158;2022-12-29T06:25:14;8.87;;;8.57;;
727;SDS011;347;48.780;9.158;2022-12-29T06:27:40;7.77;;;7.57;;
727;SDS011;347;48.780;9.158;2022-12-29T06:30:06;8.30;;;7.90;;
727;SDS011;347;48.780;9.158;2022-12-29T06:32:32;7.83;;;7.63;;
727;SDS011;347;48.780;9.158;2022-12-29T06:34:58;8.17;;;7.97;;
727;SDS011;347;48.780;9.158;2022-12-29T06:37:24;8.83;;;8.50;;
727;SDS011;347;48.780;9.158;2022-12-29T06:39:50;8.13;;;7.80;;
727;SDS011;347;48.780;9.158;2022-12-29T06:42:15;8.20;;;7.90;;
727;SDS011;347;48.780;9.158;2022-12-29T06:44:41;8.23;;;7.93;;
727;SDS011;347;48.780;9.158;2022-12-29T06:47:06;8.50;;;8.20;;
727;SDS011;347;48.780;9.158;2022-12-29T06:49:32;9.40;;;9.07;;
727;SDS011;347;48.780;9.158;2022-12-29T06:51:58;7.80;;;7.60;;
727;SDS011;347;48.780;9.158;2022-12-29T06:54:25;8.27;;;8.07;;
727;SDS011;347;48.780;9.158;2022-12-29T06:56:51;7.87;;;7.67;;
727;SDS011;347;48.780;9.158;2022-12-29T06:59:17;8.70;;;8.40;;
727;SDS011;347;48.780;9.158;2022-12-29T07:01:42;8.40;;;8.10;;
727;SDS011;347;48.780;9.158;2022-12-29T07:04:08;9.50;;;8.70;;
727;SDS011;347;48.780;9.158;2022-12-29T07:06:34;7.63;;;7.43;;
727;SDS011;347;48.780;9.158;2022-12-29T07:08:59;8.33;;;8.00;;
727;SDS011;347;48.780;9.158;2022-12-29T07:11:25;9.27;;;8.53;;
727;SDS011;347;48.780;9.158;2022-12-29T07:13:50;8.60;;;7.93;;
727;SDS011;347;48.780;9.158;2022-12-29T07:16:16;7.83;;;7.53;;
727;SDS011;347;48.780;9.158;2022-12-29T07:18:43;8.07;;;7.67;;
727;SDS011;347;48.780;9.158;2022-12-29T07:21:08;8.87;;;8.57;;
727;SDS011;347;48.780;9.158;2022-12-29T07:23:34;7.70;;;7.50;;
727;SDS011;347;48.780;9.158;2022-12-29T07:26:05;9.00;;;8.70;;
727;SDS011;347;48.780;9.158;2022-12-29T07:28:32;9.13;;;8.83;;
727;SDS011;347;48.780;9.158;2022-12-29T07:31:00;8.43;;;8.13;;
727;SDS011;347;48.780;9.158;2022-12-29T07:33:28;8.43;;;8.13;;
727;SDS011;347;48.780;9.158;2022-12-29T07:35:54;8.20;;;7.90;;
727;SDS011;347;48.780;9.158;2022-12-29T07:38:20;9.10;;;8.80;;
727;SDS011;347;48.780;9.158;2022-12-29T07:40:45;9.53;;;9.23;;
727;SDS011;347;48.780;9.158;2022-12-29T07:43:11;8.97;;;8.50;;
727;SDS011;347;48.780;9.158;2022-12-29T07:45:37;8.53;;;8.23;;
727;SDS011;347;48.780;9.158;2022-12-29T07:48:03;9.57;;;8.97;;
727;SDS011;347;48.780;9.158;2022-12-29T07:50:32;8.53;;;8.23;;
727;SDS011;347;48.780;9.158;2022-12-29T07:52:58;8.80;;;8.50;;
727;SDS011;347;48.780;9.158;2022-12-29T07:55:24;9.90;;;9.50;;
727;SDS011;347;48.780;9.158;2022-12-29T07:57:52;8.83;;;8.53;;
727;SDS011;347;48.780;9.158;2022-12-29T08:00:18;9.27;;;8.67;;
727;SDS011;347;48.780;9.158;2022-12-29T08:02:45;9.33;;;8.90;;
727;SDS011;347;48.780;9.158;2022-12-29T08:05:10;8.40;;;8.10;;
727;SDS011;347;48.780;9.158;2022-12-29T08:07:36;8.47;;;8.17;;
727;SDS011;347;48.780;9.158;2022-12-29T08:10:02;8.83;;;8.50;;
727;SDS011;347;48.780;9.158;2022-12-29T08:12:28;11.27;;;8.77;;
727;SDS011;347;48.780;9.158;2022-12-29T08:14:53;7.93;;;7.60;;
727;SDS011;347;48.780;9.158;2022-12-29T08:17:19;8.43;;;7.93;;
727;SDS011;347;48.780;9.158;2022-12-29T08:19:44;9.13;;;8.77;;
727;SDS011;347;48.780;9.158;2022-12-29T08:22:10;8.67;;;8.30;;
727;SDS011;347;48.780;9.158;2022-12-29T08:24:35;8.97;;;8.53;;
727;SDS011;347;48.780;9.158;2022-12-29T08:27:01;8.70;;;8.40;;
727;SDS011;347;48.780;9.158;2022-12-29T08:29:27;9.13;;;8.20;;
727;SDS011;347;48.780;9.158;2022-12-29T08:31:52;9.50;;;9.10;;
727;SDS011;347;48.780;9.158;2022-12-29T08:34:18;8.40;;;8.00;;
727;SDS011;347;48.780;9.158;2022-12-29T08:36:43;9.83;;;8.90;;
727;SDS011;347;48.780;9.158;2022-12-29T08:39:09;8.07;;;7.77;;
727;SDS011;347;48.780;9.158;2022-12-29T08:41:35;8.80;;;8.50;;
727;SDS011;347;48.780;9.158;2022-12-29T08:44:00;8.90;;;8.60;;
727;SDS011;347;48.780;9.158;2022-12-29T08:46:26;7.87;;;7.67;;
727;SDS011;347;48.780;9.158;2022-12-29T08:48:52;8.83;;;8.53;;
727;SDS011;347;48.780;9.158;2022-12-29T08:51:19;8.70;;;8.20;;
727;SDS011;347;48.780;9.158;2022-12-29T08:53:44;8.17;;;7.67;;
727;SDS011;347;48.780;9.158;2022-12-29T08:56:10;8.27;;;7.97;;
727;SDS011;347;48.780;9.158;2022-12-29T08:58:36;7.83;;;7.53;;
727;SDS011;347;48.780;9.158;2022-12-29T09:01:02;8.57;;;8.03;;
727;SDS011;347;48.780;9.158;2022-12-29T09:03:28;7.90;;;7.60;;
727;SDS011;347;48.780;9.158;2022-12-29T09:05:54;8.60;;;8.13;;
727;SDS011;347;48.780;9.158;2022-12-29T09:08:21;7.63;;;7.37;;
727;SDS011;347;48.780;9.158;2022-12-29T09:10:47;8.60;;;7.87;;
727;SDS011;347;48.780;9.158;2022-12-29T09:13:13;7.57;;;7.27;;
727;SDS011;347;48.780;9.158;2022-12-29T09:15:39;7.53;;;7.23;;
727;SDS011;347;48.780;9.158;2022-12-29T09:18:06;8.30;;;8.00;;
727;SDS011;347;48.780;9.158;2022-12-29T09:20:33;9.47;;;8.80;;
727;SDS011;347;48.780;9.158;2022-12-29T09:22:59;8.03;;;7.73;;
727;SDS011;347;48.780;9.158;2022-12-29T09:25:24;7.30;;;7.10;;
727;SDS011;347;48.780;9.158;2022-12-29T09:27:51;7.00;;;6.80;;
727;SDS011;347;48.780;9.158;2022-12-29T09:30:20;7.80;;;7.30;;
727;SDS011;347;48.780;9.158;2022-12-29T09:32:47;7.87;;;7.53;;
727;SDS011;347;48.780;9.158;2022-12-29T09:35:14;7.10;;;6.90;;
727;SDS011;347;48.780;9.158;2022-12-29T09:37:40;6.70;;;6.50;;
727;SDS011;347;48.780;9.158;2022-12-29T09:40:07;7.70;;;7.40;;
727;SDS011;347;48.780;9.158;2022-12-29T09:42:41;7.57;;;7.37;;
727;SDS011;347;48.780;9.158;2022-12-29T09:45:31;8.40;;;7.90;;
727;SDS011;347;48.780;9.158;2022-12-29T09:48:07;7.10;;;6.83;;
727;SDS011;347;48.780;9.158;2022-12-29T09:50:41;7.67;;;7.17;;
727;SDS011;347;48.780;9.158;2022-12-29T09:53:17;6.73;;;6.43;;
727;SDS011;347;48.780;9.158;2022-12-29T09:55:52;8.23;;;7.93;;
727;SDS011;347;48.780;9.158;2022-12-29T10:01:05;7.93;;;7.63;;
727;SDS011;347;48.780;9.158;2022-12-29T10:03:40;7.60;;;7.30;;
727;SDS011;347;48.780;9.158;2022-12-29T10:06:20;8.57;;;7.80;;
727;SDS011;347;48.780;9.158;2022-12-29T10:21:12;8.10;;;7.60;;
727;SDS011;347;48.780;9.158;2022-12-29T10:23:49;8.87;;;8.47;;
727;SDS011;347;48.780;9.158;2022-12-29T10:26:17;7.50;;;7.27;;
727;SDS011;347;48.780;9.158;2022-12-29T10:31:49;7.70;;;7.30;;
727;SDS011;347;48.780;9.158;2022-12-29T10:34:39;8.20;;;8.00;;
727;SDS011;347;48.780;9.158;2022-12-29T10:37:24;9.90;;;7.80;;
727;SDS011;347;48.780;9.158;2022-12-29T10:40:56;7.77;;;7.57;;
727;SDS011;347;48.780;9.158;2022-12-29T10:43:51;7.93;;;7.63;;
727;SDS011;347;48.780;9.158;2022-12-29T10:46:12;7.77;;;7.37;;
727;SDS011;347;48.780;9.158;2022-12-29T10:48:43;8.43;;;8.13;;
727;SDS011;347;48.780;9.158;2022-12-29T10:51:20;6.90;;;6.70;;
727;SDS011;347;48.780;9.158;2022-12-29T10:53:55;7.83;;;7.53;;
727;SDS011;347;48.780;9.158;2022-12-29T10:56:36;7.63;;;7.40;;
727;SDS011;347;48.780;9.158;2022-12-29T10:59:07;7.50;;;7.30;;
727;SDS011;347;48.780;9.158;2022-12-29T11:01:42;8.37;;;7.97;;
727;SDS011;347;48.780;9.158;2022-12-29T11:04:27;7.20;;;6.90;;
727;SDS011;347;48.780;9.158;2022-12-29T11:07:14;7.67;;;7.17;;
727;SDS011;347;48.780;9.158;2022-12-29T11:09:45;7.57;;;7.27;;
727;SDS011;347;48.780;9.158;2022-12-29T11:12:29;7.63;;;7.33;;
727;SDS011;347;48.780;9.158;2022-12-29T11:23:04;7.57;;;7.27;;
727;SDS011;347;48.780;9.158;2022-12-29T11:25:45;7.50;;;7.00;;
727;SDS011;347;48.780;9.158;2022-12-29T11:28:14;6.87;;;6.57;;
727;SDS011;347;48.780;9.158;2022-12-29T11:30:41;7.03;;;6.83;;
727;SDS011;347;48.780;9.158;2022-12-29T11:33:07;6.83;;;6.53;;
727;SDS011;347;48.780;9.158;2022-12-29T11:35:35;7.13;;;6.73;;
727;SDS011;347;48.780;9.158;2022-12-29T11:38:06;7.33;;;7.03;;
727;SDS011;347;48.780;9.158;2022-12-29T11:40:48;6.97;;;6.77;;
727;SDS011;347;48.780;9.158;2022-12-29T11:43:26;7.30;;;7.00;;
727;SDS011;347;48.780;9.158;2022-12-29T11:46:00;7.47;;;6.97;;
727;SDS011;347;48.780;9.158;2022-12-29T11:48:31;8.10;;;7.80;;
727;SDS011;347;48.780;9.158;2022-12-29T11:51:05;7.53;;;7.23;;
727;SDS011;347;48.780;9.158;2022-12-29T11:53:39;7.83;;;7.43;;
727;SDS011;347;48.780;9.158;2022-12-29T11:56:12;6.30;;;6.10;;
727;SDS011;347;48.780;9.158;2022-12-29T11:58:40;7.20;;;6.90;;
727;SDS011;347;48.780;9.158;2022-12-29T12:01:10;7.90;;;7.60;;
727;SDS011;347;48.780;9.158;2022-12-29T12:06:21;8.23;;;7.63;;
727;SDS011;347;48.780;9.158;2022-12-29T12:08:56;7.30;;;7.10;;
727;SDS011;347;48.780;9.158;2022-12-29T12:11:37;7.13;;;6.93;;
727;SDS011;347;48.780;9.158;2022-12-29T12:14:24;7.83;;;7.43;;
727;SDS011;347;48.780;9.158;2022-12-29T12:16:59;7.70;;;7.50;;
727;SDS011;347;48.780;9.158;2022-12-29T12:22:10;8.40;;;8.10;;
727;SDS011;347;48.780;9.158;2022-12-29T12:27:51;8.53;;;8.10;;
727;SDS011;347;48.780;9.158;2022-12-29T12:30:24;7.37;;;7.17;;
727;SDS011;347;48.780;9.158;2022-12-29T12:33:03;8.23;;;7.80;;
727;SDS011;347;48.780;9.158;2022-12-29T12:41:32;8.10;;;7.57;;
727;SDS011;347;48.780;9.158;2022-12-29T12:47:10;6.70;;;6.50;;
727;SDS011;347;48.780;9.158;2022-12-29T13:06:20;7.73;;;7.43;;
727;SDS011;347;48.780;9.158;2022-12-29T13:11:52;8.10;;;7.80;;
727;SDS011;347;48.780;9.158;2022-12-29T13:15:00;8.83;;;8.43;;
727;SDS011;347;48.780;9.158;2022-12-29T13:18:03;8.50;;;8.10;;
727;SDS011;347;48.780;9.158;2022-12-29T13:20:42;8.60;;;8.30;;
727;SDS011;347;48.780;9.158;2022-12-29T13:26:08;7.97;;;7.77;;
727;SDS011;347;48.780;9.158;2022-12-29T13:37:29;8.20;;;7.90;;
727;SDS011;347;48.780;9.158;2022-12-29T13:39:59;8.60;;;8.10;;
727;SDS011;347;48.780;9.158;2022-12-29T13:42:28;8.40;;;8.10;;
727;SDS011;347;48.780;9.158;2022-12-29T13:47:32;7.60;;;7.40;;
727;SDS011;347;48.780;9.158;2022-12-29T13:50:11;8.53;;;8.23;;
727;SDS011;347;48.780;9.158;2022-12-29T13:52:45;8.50;;;8.00;;
727;SDS011;347;48.780;9.158;2022-12-29T14:00:30;8.13;;;7.83;;
727;SDS011;347;48.780;9.158;2022-12-29T14:03:33;8.90;;;8.50;;
727;SDS011;347;48.780;9.158;2022-12-29T14:11:21;8.00;;;7.60;;
727;SDS011;347;48.780;9.158;2022-12-29T14:13:58;7.70;;;7.50;;
727;SDS011;347;48.780;9.158;2022-12-29T14:16:35;8.17;;;7.70;;
727;SDS011;347;48.780;9.158;2022-12-29T14:19:05;9.13;;;8.80;;
727;SDS011;347;48.780;9.158;2022-12-29T14:21:37;8.80;;;8.40;;
727;SDS011;347;48.780;9.158;2022-12-29T14:24:26;8.60;;;8.10;;
727;SDS011;347;48.780;9.158;2022-12-29T14:26:53;9.00;;;8.50;;
727;SDS011;347;48.780;9.158;2022-12-29T14:31:51;9.03;;;8.73;;
727;SDS011;347;48.780;9.158;2022-12-29T14:44:48;8.80;;;8.40;;
727;SDS011;347;48.780;9.158;2022-12-29T14:47:26;9.17;;;8.87;;
727;SDS011;347;48.780;9.158;2022-12-29T14:50:02;8.43;;;8.20;;
727;SDS011;347;48.780;9.158;2022-12-29T14:57:59;9.60;;;9.20;;
727;SDS011;347;48.780;9.158;2022-12-29T15:00:27;10.50;;;9.80;;
727;SDS011;347;48.780;9.158;2022-12-29T15:05:31;10.10;;;9.63;;
727;SDS011;347;48.780;9.158;2022-12-29T15:07:58;8.77;;;8.47;;
727;SDS011;347;48.780;9.158;2022-12-29T15:10:25;8.57;;;8.30;;
727;SDS011;347;48.780;9.158;2022-12-29T15:13:00;11.47;;;10.57;;
727;SDS011;347;48.780;9.158;2022-12-29T15:15:35;10.00;;;9.60;;
727;SDS011;347;48.780;9.158;2022-12-29T15:18:21;9.90;;;9.50;;
727;SDS011;347;48.780;9.158;2022-12-29T15:20:49;9.00;;;8.63;;
727;SDS011;347;48.780;9.158;2022-12-29T15:23:18;9.20;;;8.90;;
727;SDS011;347;48.780;9.158;2022-12-29T15:25:49;10.23;;;9.53;;
727;SDS011;347;48.780;9.158;2022-12-29T15:28:16;9.50;;;9.20;;
727;SDS011;347;48.780;9.158;2022-12-29T15:30:55;9.60;;;9.20;;
727;SDS011;347;48.780;9.158;2022-12-29T15:33:26;9.43;;;8.90;;
727;SDS011;347;48.780;9.158;2022-12-29T15:35:53;9.10;;;8.70;;
727;SDS011;347;48.780;9.158;2022-12-29T15:38:21;9.53;;;9.23;;
727;SDS011;347;48.780;9.158;2022-12-29T15:40:51;8.77;;;8.37;;
727;SDS011;347;48.780;9.158;2022-12-29T15:46:23;9.23;;;8.83;;
727;SDS011;347;48.780;9.158;2022-12-29T15:48:49;8.43;;;8.23;;
727;SDS011;347;48.780;9.158;2022-12-29T15:51:33;10.20;;;9.63;;
727;SDS011;347;48.780;9.158;2022-12-29T15:54:02;8.90;;;8.50;;
727;SDS011;347;48.780;9.158;2022-12-29T15:56:29;9.07;;;8.77;;
727;SDS011;347;48.780;9.158;2022-12-29T15:58:56;9.40;;;8.90;;
727;SDS011;347;48.780;9.158;2022-12-29T16:03:57;8.00;;;7.80;;
727;SDS011;347;48.780;9.158;2022-12-29T16:08:57;8.53;;;8.23;;
727;SDS011;347;48.780;9.158;2022-12-29T16:11:26;8.70;;;8.40;;
727;SDS011;347;48.780;9.158;2022-12-29T16:13:57;8.10;;;7.90;;
727;SDS011;347;48.780;9.158;2022-12-29T16:16:27;8.60;;;8.30;;
727;SDS011;347;48.780;9.158;2022-12-29T16:18:56;9.00;;;8.60;;
727;SDS011;347;48.780;9.158;2022-12-29T16:21:26;9.60;;;9.23;;
727;SDS011;347;48.780;9.158;2022-12-29T16:23:59;8.73;;;8.43;;
727;SDS011;347;48.780;9.158;2022-12-29T16:26:27;8.50;;;8.30;;
727;SDS011;347;48.780;9.158;2022-12-29T16:28:54;8.70;;;8.50;;
727;SDS011;347;48.780;9.158;2022-12-29T16:31:24;8.37;;;8.07;;
727;SDS011;347;48.780;9.158;2022-12-29T16:33:57;8.17;;;7.90;;
727;SDS011;347;48.780;9.158;2022-12-29T16:38:51;8.20;;;7.90;;
727;SDS011;347;48.780;9.158;2022-12-29T16:41:36;7.20;;;7.00;;
727;SDS011;347;48.780;9.158;2022-12-29T16:49:23;10.50;;;9.77;;
727;SDS011;347;48.780;9.158;2022-12-29T16:51:50;8.93;;;8.63;;
727;SDS011;347;48.780;9.158;2022-12-29T16:57:27;10.20;;;9.60;;
727;SDS011;347;48.780;9.158;2022-12-29T16:59:59;9.63;;;9.23;;
727;SDS011;347;48.780;9.158;2022-12-29T17:02:27;8.90;;;8.60;;
727;SDS011;347;48.780;9.158;2022-12-29T17:04:55;9.50;;;8.90;;
727;SDS011;347;48.780;9.158;2022-12-29T17:07:22;8.57;;;8.37;;
727;SDS011;347;48.780;9.158;2022-12-29T17:09:52;8.27;;;7.97;;
727;SDS011;347;48.780;9.158;2022-12-29T17:12:28;7.73;;;7.53;;
727;SDS011;347;48.780;9.158;2022-12-29T17:17:46;8.57;;;8.27;;
727;SDS011;347;48.780;9.158;2022-12-29T17:20:18;8.40;;;8.10;;
727;SDS011;347;48.780;9.158;2022-12-29T17:22:44;7.80;;;7.60;;
727;SDS011;347;48.780;9.158;2022-12-29T17:25:11;8.00;;;7.70;;
727;SDS011;347;48.780;9.158;2022-12-29T17:30:17;8.70;;;8.40;;
727;SDS011;347;48.780;9.158;2022-12-29T17:35:22;8.03;;;7.83;;
727;SDS011;347;48.780;9.158;2022-12-29T17:37:49;8.60;;;8.20;;
727;SDS011;347;48.780;9.158;2022-12-29T17:40:17;10.00;;;9.43;;
727;SDS011;347;48.780;9.158;2022-12-29T17:42:45;8.13;;;7.93;;
727;SDS011;347;48.780;9.158;2022-12-29T17:45:20;8.90;;;8.50;;
727;SDS011;347;48.780;9.158;2022-12-29T17:47:51;8.60;;;8.30;;
727;SDS011;347;48.780;9.158;2022-12-29T17:50:18;8.40;;;7.87;;
727;SDS011;347;48.780;9.158;2022-12-29T17:52:50;8.67;;;8.37;;
727;SDS011;347;48.780;9.158;2022-12-29T17:55:18;9.10;;;8.70;;
727;SDS011;347;48.780;9.158;2022-12-29T17:57:45;8.40;;;8.10;;
727;SDS011;347;48.780;9.158;2022-12-29T18:02:41;10.80;;;10.10;;
727;SDS011;347;48.780;9.158;2022-12-29T18:05:18;9.40;;;9.00;;
727;SDS011;347;48.780;9.158;2022-12-29T18:07:46;10.13;;;9.73;;
727;SDS011;347;48.780;9.158;2022-12-29T18:10:14;10.77;;;10.33;;
727;SDS011;347;48.780;9.158;2022-12-29T18:12:43;10.87;;;10.07;;
727;SDS011;347;48.780;9.158;2022-12-29T18:15:24;12.17;;;11.37;;
727;SDS011;347;48.780;9.158;2022-12-29T18:20:27;8.93;;;8.63;;
727;SDS011;347;48.780;9.158;2022-12-29T18:22:54;9.80;;;9.40;;
727;SDS011;347;48.780;9.158;2022-12-29T18:25:35;8.50;;;8.20;;
727;SDS011;347;48.780;9.158;2022-12-29T18:28:09;9.33;;;9.00;;
727;SDS011;347;48.780;9.158;2022-12-29T18:30:34;9.10;;;8.70;;
727;SDS011;347;48.780;9.158;2022-12-29T18:33:00;9.10;;;8.80;;
727;SDS011;347;48.780;9.158;2022-12-29T18:35:48;8.90;;;8.50;;
727;SDS011;347;48.780;9.158;2022-12-29T18:38:12;8.33;;;8.03;;
727;SDS011;347;48.780;9.158;2022-12-29T18:40:38;9.47;;;9.13;;
727;SDS011;347;48.780;9.158;2022-12-29T18:43:04;8.50;;;8.20;;
727;SDS011;347;48.780;9.158;2022-12-29T18:45:31;9.03;;;8.73;;
727;SDS011;347;48.780;9.158;2022-12-29T18:47:58;9.07;;;8.67;;
727;SDS011;347;48.780;9.158;2022-12-29T18:50:24;9.00;;;8.60;;
727;SDS011;347;48.780;9.158;2022-12-29T18:52:50;8.50;;;8.20;;
727;SDS011;347;48.780;9.158;2022-12-29T18:55:17;8.10;;;7.80;;
727;SDS011;347;48.780;9.158;2022-12-29T18:57:45;8.30;;;8.00;;
727;SDS011;347;48.780;9.158;2022-12-29T19:00:12;8.57;;;8.27;;
727;SDS011;347;48.780;9.158;2022-12-29T19:02:39;8.93;;;8.50;;
727;SDS011;347;48.780;9.158;2022-12-29T19:05:12;8.97;;;8.57;;